Time;durP1;ratioP1;P1;durP2;ratioP2;P2;SDS_P1;SDS_P2;PMS_P1;PMS_P2;Temp;Humidity;BMP_temperature;BMP_pressure;BME280_temperature;BME280_humidity;BME280_pressure;Samples;Min_cycle;Max_cycle;Signal;HPM_P1;HPM_P2
2023/06/07 00:01:17;;;;;;;11.52;6.57;;;;;;;;;;6154309;23;20001;-80
2023/06/07 00:03:44;;;;;;;12.15;6.30;;;;;;;;;;6153687;23;20304;-79
2023/06/07 00:06:10;;;;;;;13.05;6.78;;;;;;;;;;6153748;23;20085;-79
2023/06/07 00:08:35;;;;;;;12.48;6.38;;;;;;;;;;6153729;23;20006;-79
2023/06/07 00:11:01;;;;;;;15.00;6.38;;;;;;;;;;6153872;23;20001;-79
2023/06/07 00:13:27;;;;;;;13.15;6.47;;;;;;;;;;6154222;23;20005;-79
2023/06/07 00:15:52;;;;;;;12.18;6.40;;;;;;;;;;6153911;23;20069;-79
2023/06/07 00:18:19;;;;;;;10.27;6.13;;;;;;;;;;6153484;23;20041;-79
2023/06/07 00:20:45;;;;;;;10.80;6.30;;;;;;;;;;6128117;23;20068;-79
2023/06/07 00:23:13;;;;;;;12.93;6.22;;;;;;;;;;6103974;23;20382;-79
2023/06/07 00:25:39;;;;;;;13.95;6.65;;;;;;;;;;6103690;23;20048;-79
2023/06/07 00:28:05;;;;;;;12.50;6.50;;;;;;;;;;6103656;23;20429;-79
2023/06/07 00:30:30;;;;;;;12.02;6.40;;;;;;;;;;6154101;23;20020;-79
2023/06/07 00:32:56;;;;;;;14.18;6.80;;;;;;;;;;6103621;23;20064;-78
2023/06/07 00:35:21;;;;;;;20.85;6.57;;;;;;;;;;6154017;23;20009;-79
2023/06/07 00:37:46;;;;;;;13.38;6.75;;;;;;;;;;6154164;23;20009;-80
2023/06/07 00:40:12;;;;;;;17.77;7.38;;;;;;;;;;6103547;23;20020;-78
2023/06/07 00:42:38;;;;;;;13.98;7.75;;;;;;;;;;6127930;23;20013;-79
2023/06/07 00:45:03;;;;;;;17.25;9.55;;;;;;;;;;6128214;23;20002;-79
2023/06/07 00:47:29;;;;;;;17.10;10.50;;;;;;;;;;6153873;23;20021;-79
2023/06/07 00:49:54;;;;;;;21.48;10.07;;;;;;;;;;6127881;23;20349;-79
2023/06/07 00:52:21;;;;;;;22.52;10.10;;;;;;;;;;6153816;23;20396;-79
2023/06/07 00:54:46;;;;;;;19.23;9.75;;;;;;;;;;6101194;23;20329;-79
2023/06/07 00:57:12;;;;;;;20.08;9.45;;;;;;;;;;6127740;23;20014;-79
2023/06/07 00:59:38;;;;;;;14.50;9.23;;;;;;;;;;6153503;23;20421;-79
2023/06/07 01:02:04;;;;;;;16.50;9.48;;;;;;;;;;6127333;23;20006;-79
2023/06/07 01:04:30;;;;;;;23.80;9.43;;;;;;;;;;6153880;23;20417;-80
2023/06/07 01:06:55;;;;;;;21.05;9.85;;;;;;;;;;6103492;23;20575;-79
2023/06/07 01:09:21;;;;;;;17.63;9.27;;;;;;;;;;6153567;23;20063;-79
2023/06/07 01:11:49;;;;;;;19.38;9.43;;;;;;;;;;6103306;23;20448;-79
2023/06/07 01:14:15;;;;;;;19.80;9.68;;;;;;;;;;6127008;23;20001;-79
2023/06/07 01:16:40;;;;;;;16.58;9.35;;;;;;;;;;6127283;23;20453;-80
2023/06/07 01:19:06;;;;;;;22.75;9.18;;;;;;;;;;6103223;23;20001;-80
2023/06/07 01:21:32;;;;;;;16.67;9.52;;;;;;;;;;6127526;23;20425;-80
2023/06/07 01:23:59;;;;;;;17.73;8.90;;;;;;;;;;6102916;23;20001;-80
2023/06/07 01:26:26;;;;;;;20.95;9.43;;;;;;;;;;6127894;23;20002;-79
2023/06/07 01:28:52;;;;;;;16.42;8.50;;;;;;;;;;6127483;23;20021;-79
2023/06/07 01:31:17;;;;;;;18.77;8.57;;;;;;;;;;6078880;23;20010;-79
2023/06/07 01:33:43;;;;;;;13.13;7.18;;;;;;;;;;6103054;23;20406;-80
2023/06/07 01:36:08;;;;;;;10.10;6.60;;;;;;;;;;6103047;23;20360;-79
2023/06/07 01:38:34;;;;;;;12.80;6.57;;;;;;;;;;6103222;23;20072;-79
2023/06/07 01:40:59;;;;;;;13.35;6.10;;;;;;;;;;6127481;23;20065;-79
2023/06/07 01:43:25;;;;;;;12.60;6.20;;;;;;;;;;6127630;23;20060;-79
2023/06/07 01:45:50;;;;;;;16.45;5.88;;;;;;;;;;6103030;23;20100;-79
2023/06/07 01:48:16;;;;;;;13.27;6.53;;;;;;;;;;6103160;23;20032;-79
2023/06/07 01:50:41;;;;;;;14.48;7.72;;;;;;;;;;6127820;23;20005;-79
2023/06/07 01:53:07;;;;;;;22.10;9.48;;;;;;;;;;6127810;23;20007;-79
2023/06/07 01:55:32;;;;;;;24.10;10.85;;;;;;;;;;6150849;23;20025;-80
2023/06/07 01:58:05;;;;;;;25.10;12.27;;;;;;;;;;6126871;23;20009;-79
2023/06/07 02:00:35;;;;;;;23.38;12.13;;;;;;;;;;6102657;23;20085;-79
2023/06/07 02:03:06;;;;;;;;;;;;;;;;;;6152309;23;20010;-80
2023/06/07 02:05:36;;;;;;;22.15;9.95;;;;;;;;;;6127090;23;19908;-80
2023/06/07 02:08:07;;;;;;;17.88;9.25;;;;;;;;;;6129167;23;20006;-79
2023/06/07 02:10:32;;;;;;;19.05;8.45;;;;;;;;;;6129998;23;20009;-79
2023/06/07 02:12:58;;;;;;;21.35;8.25;;;;;;;;;;6129126;23;20009;-79
2023/06/07 02:15:23;;;;;;;13.15;7.47;;;;;;;;;;6128979;23;20007;-79
2023/06/07 02:17:49;;;;;;;13.23;7.47;;;;;;;;;;6104699;23;20006;-79
2023/06/07 02:20:15;;;;;;;13.98;6.65;;;;;;;;;;6129088;23;20330;-78
2023/06/07 02:22:40;;;;;;;13.25;6.68;;;;;;;;;;6129684;23;20449;-79
2023/06/07 02:25:08;;;;;;;18.92;6.18;;;;;;;;;;6105238;23;19998;-79
2023/06/07 02:27:34;;;;;;;16.67;5.93;;;;;;;;;;6105487;23;20013;-79
2023/06/07 02:29:59;;;;;;;10.95;5.68;;;;;;;;;;6169264;23;20001;-79
2023/06/07 02:32:26;;;;;;;16.65;5.88;;;;;;;;;;6150915;23;20012;-80
2023/06/07 02:34:51;;;;;;;10.88;5.55;;;;;;;;;;6175583;23;20081;-79
2023/06/07 02:37:17;;;;;;;10.07;5.40;;;;;;;;;;6152868;23;20013;-79
2023/06/07 02:39:43;;;;;;;10.90;5.30;;;;;;;;;;6127841;23;20001;-80
2023/06/07 02:42:08;;;;;;;9.73;5.60;;;;;;;;;;6144795;23;20440;-79
2023/06/07 02:44:33;;;;;;;13.23;5.65;;;;;;;;;;6155435;23;20442;-79
2023/06/07 02:46:59;;;;;;;9.95;4.65;;;;;;;;;;6155362;23;20413;-79
2023/06/07 02:49:24;;;;;;;9.43;4.97;;;;;;;;;;6128962;23;20308;-79
2023/06/07 02:51:50;;;;;;;10.73;4.93;;;;;;;;;;6155187;23;20002;-79
2023/06/07 02:54:19;;;;;;;12.88;5.50;;;;;;;;;;6155293;23;20422;-79
2023/06/07 02:56:45;;;;;;;11.25;4.90;;;;;;;;;;6154708;23;20037;-80
2023/06/07 02:59:10;;;;;;;9.63;5.07;;;;;;;;;;6126378;23;20001;-80
2023/06/07 03:01:37;;;;;;;10.02;5.35;;;;;;;;;;6128893;23;20412;-79
2023/06/07 03:04:03;;;;;;;9.18;5.03;;;;;;;;;;6128631;23;20006;-79
2023/06/07 03:06:29;;;;;;;11.48;5.22;;;;;;;;;;6128579;23;20001;-78
2023/06/07 03:08:56;;;;;;;17.13;4.95;;;;;;;;;;6129171;23;20337;-79
2023/06/07 03:11:22;;;;;;;8.00;4.80;;;;;;;;;;6154208;23;20002;-78
2023/06/07 03:13:48;;;;;;;8.95;5.00;;;;;;;;;;6154885;23;20010;-79
2023/06/07 03:16:13;;;;;;;11.73;4.88;;;;;;;;;;6154498;23;20509;-79
2023/06/07 03:18:38;;;;;;;10.43;5.07;;;;;;;;;;6154425;23;20008;-79
2023/06/07 03:21:04;;;;;;;11.82;5.10;;;;;;;;;;6154850;23;20091;-78
2023/06/07 03:23:30;;;;;;;12.30;4.75;;;;;;;;;;6154450;23;20017;-79
2023/06/07 03:25:57;;;;;;;10.52;5.30;;;;;;;;;;6128457;23;20052;-78
2023/06/07 03:28:22;;;;;;;20.85;5.22;;;;;;;;;;6154454;23;20010;-81
2023/06/07 03:30:48;;;;;;;8.52;5.10;;;;;;;;;;6154631;23;20056;-78
2023/06/07 03:33:14;;;;;;;7.95;4.70;;;;;;;;;;6128541;23;20009;-79
2023/06/07 03:35:39;;;;;;;10.18;4.75;;;;;;;;;;6154752;23;19998;-79
2023/06/07 03:38:05;;;;;;;11.57;5.10;;;;;;;;;;6128489;23;20013;-79
2023/06/07 03:40:31;;;;;;;17.10;5.85;;;;;;;;;;6154694;23;20010;-79
2023/06/07 03:42:56;;;;;;;9.10;4.95;;;;;;;;;;6154486;23;20432;-79
2023/06/07 03:45:22;;;;;;;17.52;5.22;;;;;;;;;;6154241;23;20060;-78
2023/06/07 03:47:47;;;;;;;9.27;4.85;;;;;;;;;;6155063;23;20040;-79
2023/06/07 03:50:13;;;;;;;10.15;5.10;;;;;;;;;;6155219;23;20016;-77
2023/06/07 03:52:38;;;;;;;11.45;5.85;;;;;;;;;;6128539;23;20440;-79
2023/06/07 03:55:04;;;;;;;11.15;5.22;;;;;;;;;;6154374;23;20006;-79
2023/06/07 03:57:29;;;;;;;12.25;5.10;;;;;;;;;;6104111;23;20015;-79
2023/06/07 03:59:56;;;;;;;11.38;5.18;;;;;;;;;;6152538;23;20020;-79
2023/06/07 04:02:22;;;;;;;10.65;5.28;;;;;;;;;;6154208;23;20048;-79
2023/06/07 04:04:47;;;;;;;11.82;5.72;;;;;;;;;;6154799;23;20013;-78
2023/06/07 04:07:12;;;;;;;13.57;5.63;;;;;;;;;;6128023;23;20028;-79
2023/06/07 04:09:39;;;;;;;9.25;5.55;;;;;;;;;;6127738;23;20005;-78
2023/06/07 04:12:06;;;;;;;8.48;4.88;;;;;;;;;;6154073;23;20437;-79
2023/06/07 04:14:31;;;;;;;13.05;5.50;;;;;;;;;;6103679;23;20040;-79
2023/06/07 04:16:56;;;;;;;8.25;5.10;;;;;;;;;;6153930;23;20349;-80
2023/06/07 04:19:22;;;;;;;12.60;5.45;;;;;;;;;;6153872;23;20353;-79
2023/06/07 04:21:47;;;;;;;9.93;5.57;;;;;;;;;;6154315;23;20332;-78
2023/06/07 04:24:13;;;;;;;12.68;5.55;;;;;;;;;;6153513;23;20001;-77
2023/06/07 04:26:38;;;;;;;8.82;5.32;;;;;;;;;;6153978;23;20016;-80
2023/06/07 04:29:04;;;;;;;12.02;5.68;;;;;;;;;;6153602;23;20009;-78
2023/06/07 04:31:29;;;;;;;12.70;6.03;;;;;;;;;;6154129;23;20013;-78
2023/06/07 04:34:01;;;;;;;10.02;5.38;;;;;;;;;;6127790;23;20089;-81
2023/06/07 04:36:28;;;;;;;13.68;5.68;;;;;;;;;;6168756;23;20009;-83
2023/06/07 04:38:55;;;;;;;10.82;5.30;;;;;;;;;;6163517;23;20037;-83
2023/06/07 04:41:25;;;;;;;11.60;6.10;;;;;;;;;;6169814;23;20011;-83
2023/06/07 04:43:51;;;;;;;13.05;5.30;;;;;;;;;;6171736;23;20005;-84
2023/06/07 04:46:18;;;;;;;14.48;5.50;;;;;;;;;;6115731;23;20011;-83
2023/06/07 04:48:44;;;;;;;14.32;5.50;;;;;;;;;;6134190;23;20378;-85
2023/06/07 04:51:13;;;;;;;14.10;5.22;;;;;;;;;;6128387;23;20070;-83
2023/06/07 04:53:41;;;;;;;14.18;5.20;;;;;;;;;;6148083;23;20456;-82
2023/06/07 04:56:06;;;;;;;12.68;5.28;;;;;;;;;;6097217;23;20348;-85
2023/06/07 04:58:46;;;;;;;10.05;5.13;;;;;;;;;;6152018;23;20005;-82
2023/06/07 05:01:25;;;;;;;18.70;5.50;;;;;;;;;;6100079;23;20005;-82
2023/06/07 05:03:58;;;;;;;9.97;5.40;;;;;;;;;;6099210;23;20035;-81
2023/06/07 05:06:28;;;;;;;12.70;5.60;;;;;;;;;;6101019;23;20017;-80
2023/06/07 05:08:54;;;;;;;11.00;5.30;;;;;;;;;;6148331;23;20006;-82
2023/06/07 05:11:21;;;;;;;13.40;5.60;;;;;;;;;;6096712;23;19997;-82
2023/06/07 05:13:48;;;;;;;10.38;5.38;;;;;;;;;;6122674;23;20001;-83
2023/06/07 05:16:16;;;;;;;9.10;4.72;;;;;;;;;;6099191;23;20009;-85
2023/06/07 05:18:48;;;;;;;10.98;5.13;;;;;;;;;;6147704;23;20005;-83
2023/06/07 05:21:15;;;;;;;15.10;5.95;;;;;;;;;;6151519;23;20036;-84
2023/06/07 05:23:41;;;;;;;8.10;4.80;;;;;;;;;;6130189;23;20048;-83
2023/06/07 05:26:07;;;;;;;12.32;5.65;;;;;;;;;;6099083;23;20007;-84
2023/06/07 05:28:34;;;;;;;9.55;5.45;;;;;;;;;;6098406;23;20049;-84
2023/06/07 05:31:00;;;;;;;11.63;5.68;;;;;;;;;;6097318;23;20117;-83
2023/06/07 05:33:28;;;;;;;14.52;6.22;;;;;;;;;;6123269;23;20009;-82
2023/06/07 05:35:54;;;;;;;15.85;5.95;;;;;;;;;;6149506;23;20009;-82
2023/06/07 05:38:20;;;;;;;13.55;5.63;;;;;;;;;;6151156;23;20009;-84
2023/06/07 05:40:51;;;;;;;6.88;4.72;;;;;;;;;;6078689;23;20001;-86
2023/06/07 05:43:17;;;;;;;9.07;5.03;;;;;;;;;;6077121;23;20012;-80
2023/06/07 05:45:45;;;;;;;11.45;5.40;;;;;;;;;;6126145;23;20407;-82
2023/06/07 05:48:19;;;;;;;11.20;5.53;;;;;;;;;;6153588;23;20077;-83
2023/06/07 05:50:44;;;;;;;10.48;5.53;;;;;;;;;;6154211;23;20068;-82
2023/06/07 05:53:10;;;;;;;16.98;5.80;;;;;;;;;;6125811;23;20389;-83
2023/06/07 05:55:41;;;;;;;10.25;5.50;;;;;;;;;;6100917;23;20006;-82
2023/06/07 05:58:06;;;;;;;11.40;5.72;;;;;;;;;;6100492;23;20386;-85
2023/06/07 06:00:54;;;;;;;8.10;4.95;;;;;;;;;;6134475;23;20009;-85
2023/06/07 06:03:20;;;;;;;10.55;5.35;;;;;;;;;;6128530;23;20585;-80
2023/06/07 06:05:46;;;;;;;12.18;6.00;;;;;;;;;;6150264;23;20033;-81
2023/06/07 06:08:12;;;;;;;13.23;5.72;;;;;;;;;;6150666;23;20006;-81
2023/06/07 06:10:39;;;;;;;13.93;5.72;;;;;;;;;;6151057;23;20006;-82
2023/06/07 06:13:05;;;;;;;10.43;5.60;;;;;;;;;;6126291;23;20013;-81
2023/06/07 06:15:30;;;;;;;11.43;5.03;;;;;;;;;;6127516;23;20001;-80
2023/06/07 06:17:55;;;;;;;9.23;5.07;;;;;;;;;;6149965;23;20006;-81
2023/06/07 06:20:21;;;;;;;11.02;5.00;;;;;;;;;;6123248;23;20049;-82
2023/06/07 06:22:46;;;;;;;9.55;4.72;;;;;;;;;;6152141;23;20006;-81
2023/06/07 06:25:13;;;;;;;11.27;5.40;;;;;;;;;;6132743;23;20008;-79
2023/06/07 06:27:40;;;;;;;11.57;5.00;;;;;;;;;;6151285;23;20021;-80
2023/06/07 06:30:06;;;;;;;8.35;4.78;;;;;;;;;;6128641;23;20001;-82
2023/06/07 06:32:32;;;;;;;9.70;4.93;;;;;;;;;;6125567;23;20045;-81
2023/06/07 06:35:12;;;;;;;6.63;4.50;;;;;;;;;;6151888;23;20009;-79
2023/06/07 06:37:38;;;;;;;12.25;4.97;;;;;;;;;;6153679;23;20342;-81
2023/06/07 06:40:04;;;;;;;10.82;5.18;;;;;;;;;;6153705;23;20002;-82
2023/06/07 06:42:30;;;;;;;7.70;5.10;;;;;;;;;;6152499;23;20017;-82
2023/06/07 06:44:55;;;;;;;10.30;5.28;;;;;;;;;;6149166;23;20380;-83
2023/06/07 06:47:22;;;;;;;8.10;4.82;;;;;;;;;;6150999;23;20014;-81
2023/06/07 06:49:48;;;;;;;11.50;5.75;;;;;;;;;;6119870;23;20010;-82
2023/06/07 06:52:17;;;;;;;12.25;5.43;;;;;;;;;;6151055;23;20027;-82
2023/06/07 06:54:46;;;;;;;10.40;5.43;;;;;;;;;;6154951;23;20024;-82
2023/06/07 06:57:13;;;;;;;10.93;5.13;;;;;;;;;;6126895;23;20080;-84
2023/06/07 06:59:38;;;;;;;10.98;6.05;;;;;;;;;;6151273;23;20462;-82
2023/06/07 07:02:04;;;;;;;8.13;5.35;;;;;;;;;;6152919;23;20010;-82
2023/06/07 07:04:31;;;;;;;12.82;5.72;;;;;;;;;;6152798;23;20017;-82
2023/06/07 07:06:57;;;;;;;11.98;5.30;;;;;;;;;;6101178;23;20095;-84
2023/06/07 07:09:22;;;;;;;17.25;5.10;;;;;;;;;;6148896;23;20558;-83
2023/06/07 07:11:48;;;;;;;12.02;5.22;;;;;;;;;;6150443;23;20076;-83
2023/06/07 07:14:13;;;;;;;11.20;4.90;;;;;;;;;;6149826;23;20005;-82
2023/06/07 07:16:39;;;;;;;11.02;5.75;;;;;;;;;;6151149;23;20012;-85
2023/06/07 07:19:04;;;;;;;11.75;5.57;;;;;;;;;;6125098;23;20009;-83
2023/06/07 07:21:30;;;;;;;11.60;5.75;;;;;;;;;;6150149;23;20028;-82
2023/06/07 07:23:55;;;;;;;12.70;5.82;;;;;;;;;;6100023;23;20001;-81
2023/06/07 07:26:21;;;;;;;15.52;6.18;;;;;;;;;;6152492;23;20089;-81
2023/06/07 07:28:46;;;;;;;10.68;5.63;;;;;;;;;;6127016;23;20009;-83
2023/06/07 07:31:13;;;;;;;12.23;5.45;;;;;;;;;;6126340;23;20027;-83
2023/06/07 07:33:39;;;;;;;14.27;5.80;;;;;;;;;;6152668;23;20009;-84
2023/06/07 07:36:07;;;;;;;12.13;5.93;;;;;;;;;;6125809;23;20005;-83
2023/06/07 07:38:33;;;;;;;9.15;5.70;;;;;;;;;;6150257;23;20025;-83
2023/06/07 07:40:59;;;;;;;11.60;5.43;;;;;;;;;;6129438;23;20413;-82
2023/06/07 07:43:24;;;;;;;12.98;6.22;;;;;;;;;;6123879;23;20068;-83
2023/06/07 07:45:50;;;;;;;14.65;5.80;;;;;;;;;;6124185;23;20453;-84
2023/06/07 07:48:16;;;;;;;16.13;6.25;;;;;;;;;;6126329;23;20055;-83
2023/06/07 07:50:41;;;;;;;13.90;6.18;;;;;;;;;;6123979;23;20435;-84
2023/06/07 07:53:07;;;;;;;10.27;6.10;;;;;;;;;;6147435;23;20361;-83
2023/06/07 07:55:33;;;;;;;13.18;5.80;;;;;;;;;;6147869;23;20563;-83
2023/06/07 07:57:58;;;;;;;11.95;6.20;;;;;;;;;;6123329;23;20013;-82
2023/06/07 08:00:24;;;;;;;11.70;6.10;;;;;;;;;;6149228;23;20456;-83
2023/06/07 08:02:50;;;;;;;13.90;6.05;;;;;;;;;;6148284;23;20023;-82
2023/06/07 08:05:15;;;;;;;9.50;6.10;;;;;;;;;;6122288;23;20009;-82
2023/06/07 08:07:41;;;;;;;11.32;5.90;;;;;;;;;;6099654;23;20010;-81
2023/06/07 08:10:08;;;;;;;10.13;5.45;;;;;;;;;;6146961;23;20012;-82
2023/06/07 08:12:34;;;;;;;10.38;5.90;;;;;;;;;;6122719;23;19998;-83
2023/06/07 08:14:59;;;;;;;11.63;5.40;;;;;;;;;;6148832;23;20080;-83
2023/06/07 08:17:26;;;;;;;11.00;5.68;;;;;;;;;;6127140;23;20036;-83
2023/06/07 08:19:52;;;;;;;11.68;5.82;;;;;;;;;;6125020;23;20005;-81
2023/06/07 08:22:17;;;;;;;16.27;6.15;;;;;;;;;;6153263;23;20053;-81
2023/06/07 08:24:43;;;;;;;11.70;5.55;;;;;;;;;;6130592;23;20009;-82
2023/06/07 08:27:09;;;;;;;14.02;5.82;;;;;;;;;;6151899;23;20006;-84
2023/06/07 08:29:34;;;;;;;10.18;5.68;;;;;;;;;;6126574;23;20002;-83
2023/06/07 08:32:00;;;;;;;18.23;5.80;;;;;;;;;;6151223;23;20062;-84
2023/06/07 08:34:28;;;;;;;11.48;5.82;;;;;;;;;;6127136;23;20021;-83
2023/06/07 08:36:54;;;;;;;9.27;5.70;;;;;;;;;;6126905;23;20008;-82
2023/06/07 08:39:20;;;;;;;8.45;4.55;;;;;;;;;;6102252;23;20029;-83
2023/06/07 08:41:45;;;;;;;8.15;5.30;;;;;;;;;;6151062;23;20463;-82
2023/06/07 08:44:11;;;;;;;7.93;4.93;;;;;;;;;;6155240;23;20401;-83
2023/06/07 08:46:37;;;;;;;9.05;5.22;;;;;;;;;;6154573;23;20013;-83
2023/06/07 08:52:00;;;;;;;11.00;5.22;;;;;;;;;;6135327;23;20029;-84
2023/06/07 08:54:26;;;;;;;10.20;5.20;;;;;;;;;;6131428;23;20017;-81
2023/06/07 08:56:55;;;;;;;11.10;5.18;;;;;;;;;;6133606;23;20044;-81
2023/06/07 08:59:21;;;;;;;10.75;4.97;;;;;;;;;;6130119;23;20012;-81
2023/06/07 09:01:47;;;;;;;7.28;4.53;;;;;;;;;;6128930;23;20001;-83
2023/06/07 09:04:29;;;;;;;12.13;4.75;;;;;;;;;;6113768;23;20040;-81
2023/06/07 09:06:55;;;;;;;7.72;4.80;;;;;;;;;;6139568;23;20406;-81
2023/06/07 09:09:22;;;;;;;11.40;5.10;;;;;;;;;;6156115;23;20008;-83
2023/06/07 09:11:51;;;;;;;9.00;4.97;;;;;;;;;;6161267;23;20040;-83
2023/06/07 09:14:17;;;;;;;9.02;4.88;;;;;;;;;;6135211;23;20008;-84
2023/06/07 09:16:53;;;;;;;11.63;5.05;;;;;;;;;;6184737;23;20001;-83
2023/06/07 09:19:41;;;;;;;8.70;4.80;;;;;;;;;;6152982;23;20013;-83
2023/06/07 09:22:13;;;;;;;12.13;5.13;;;;;;;;;;6152637;23;20313;-84
2023/06/07 09:24:39;;;;;;;12.90;5.32;;;;;;;;;;6178622;23;20005;-83
2023/06/07 09:27:05;;;;;;;10.13;5.05;;;;;;;;;;6177315;23;20005;-82
2023/06/07 09:29:38;;;;;;;9.15;5.07;;;;;;;;;;6151026;23;20029;-84
2023/06/07 09:32:24;;;;;;;11.48;5.22;;;;;;;;;;6183288;23;20141;-83
2023/06/07 09:34:49;;;;;;;11.50;5.40;;;;;;;;;;6157002;23;20013;-82
2023/06/07 09:37:20;;;;;;;13.38;4.97;;;;;;;;;;6135906;23;20028;-83
2023/06/07 09:39:46;;;;;;;8.73;4.95;;;;;;;;;;6158338;23;20010;-85
2023/06/07 09:42:18;;;;;;;11.98;5.22;;;;;;;;;;6179146;23;20001;-83
2023/06/07 09:44:43;;;;;;;14.75;4.85;;;;;;;;;;6150619;23;20551;-84
2023/06/07 09:47:21;;;;;;;7.68;4.93;;;;;;;;;;6151946;23;20025;-82
2023/06/07 09:49:47;;;;;;;13.60;5.13;;;;;;;;;;6178202;23;20061;-84
2023/06/07 09:52:16;;;;;;;10.07;4.88;;;;;;;;;;6178914;23;20072;-84
2023/06/07 09:54:44;;;;;;;15.60;5.15;;;;;;;;;;6119485;23;20020;-82
2023/06/07 09:57:26;;;;;;;9.73;4.80;;;;;;;;;;6146471;23;20001;-81
2023/06/07 10:00:16;;;;;;;9.05;4.80;;;;;;;;;;6147475;23;20001;-80
2023/06/07 10:02:42;;;;;;;8.98;4.50;;;;;;;;;;6144503;23;20006;-85
2023/06/07 10:05:09;;;;;;;9.30;5.10;;;;;;;;;;6120511;23;20006;-83
2023/06/07 10:07:42;;;;;;;7.75;4.50;;;;;;;;;;6146193;23;20009;-83
2023/06/07 10:10:11;;;;;;;11.82;4.75;;;;;;;;;;6145374;23;20006;-81
2023/06/07 10:12:41;;;;;;;9.52;4.90;;;;;;;;;;6143568;23;20373;-81
2023/06/07 10:15:09;;;;;;;13.88;5.10;;;;;;;;;;6144761;23;20044;-79
2023/06/07 10:17:53;;;;;;;11.38;4.38;;;;;;;;;;6149198;23;20005;-80
2023/06/07 10:20:33;;;;;;;7.60;4.50;;;;;;;;;;6149973;23;20005;-81
2023/06/07 10:23:11;;;;;;;10.90;4.28;;;;;;;;;;6147141;23;20032;-84
2023/06/07 10:25:42;;;;;;;9.45;4.30;;;;;;;;;;6149639;23;20008;-84
2023/06/07 10:28:07;;;;;;;7.90;4.75;;;;;;;;;;6152188;23;20052;-78
2023/06/07 10:30:32;;;;;;;12.10;4.85;;;;;;;;;;6153126;23;20334;-82
2023/06/07 10:32:58;;;;;;;9.20;4.30;;;;;;;;;;6151793;23;20032;-84
2023/06/07 10:35:24;;;;;;;9.52;4.28;;;;;;;;;;6126233;23;20005;-82
2023/06/07 10:37:53;;;;;;;9.88;4.40;;;;;;;;;;6150188;23;20009;-83
2023/06/07 10:40:20;;;;;;;11.68;4.38;;;;;;;;;;6148526;23;20329;-82
2023/06/07 10:42:50;;;;;;;9.65;4.43;;;;;;;;;;6150593;23;20020;-83
2023/06/07 10:45:16;;;;;;;6.20;4.43;;;;;;;;;;6122413;23;20005;-83
2023/06/07 10:47:42;;;;;;;9.07;4.30;;;;;;;;;;6123989;23;20080;-82
2023/06/07 10:50:31;;;;;;;11.20;4.57;;;;;;;;;;6149493;23;20448;-83
2023/06/07 10:53:00;;;;;;;12.07;4.63;;;;;;;;;;6138033;23;20002;-84
2023/06/07 10:55:33;;;;;;;9.80;4.15;;;;;;;;;;6123902;23;20010;-83
2023/06/07 10:57:59;;;;;;;10.55;4.68;;;;;;;;;;6127117;23;20014;-83
2023/06/07 11:00:32;;;;;;;10.85;4.47;;;;;;;;;;6100710;23;20630;-83
2023/06/07 11:03:16;;;;;;;7.63;3.90;;;;;;;;;;6078157;23;20006;-83
2023/06/07 11:05:53;;;;;;;14.30;4.05;;;;;;;;;;6125120;23;20006;-83
2023/06/07 11:08:33;;;;;;;6.95;4.20;;;;;;;;;;6123983;23;20032;-82
2023/06/07 11:11:00;;;;;;;5.15;3.97;;;;;;;;;;6106051;23;20069;-83
2023/06/07 11:13:26;;;;;;;11.63;4.30;;;;;;;;;;6108156;23;20013;-82
2023/06/07 11:15:52;;;;;;;8.80;4.10;;;;;;;;;;6099113;23;20025;-83
2023/06/07 11:18:17;;;;;;;10.57;4.03;;;;;;;;;;6125455;23;20013;-83
2023/06/07 11:20:48;;;;;;;5.85;4.00;;;;;;;;;;6125047;23;20001;-84
2023/06/07 11:23:34;;;;;;;9.93;4.30;;;;;;;;;;6151218;23;20002;-83
2023/06/07 11:26:07;;;;;;;9.68;4.22;;;;;;;;;;6102372;23;20096;-83
2023/06/07 11:28:33;;;;;;;8.30;3.88;;;;;;;;;;6127219;23;20421;-83
2023/06/07 11:31:00;;;;;;;9.27;4.05;;;;;;;;;;6090319;23;20085;-83
2023/06/07 11:33:25;;;;;;;11.52;4.30;;;;;;;;;;6086655;23;20009;-83
2023/06/07 11:35:52;;;;;;;7.05;4.38;;;;;;;;;;6134392;23;20365;-81
2023/06/07 11:38:18;;;;;;;12.60;4.38;;;;;;;;;;6086044;23;20005;-84
2023/06/07 11:40:45;;;;;;;8.32;4.38;;;;;;;;;;6134117;23;20009;-83
2023/06/07 11:43:11;;;;;;;9.20;4.22;;;;;;;;;;6107855;23;20446;-80
2023/06/07 11:45:39;;;;;;;11.32;7.28;;;;;;;;;;6128496;23;20073;-82
2023/06/07 11:48:05;;;;;;;9.48;4.28;;;;;;;;;;6104162;23;20033;-84
2023/06/07 11:50:31;;;;;;;8.23;4.30;;;;;;;;;;6104227;23;20389;-83
2023/06/07 11:52:56;;;;;;;5.70;3.95;;;;;;;;;;6103960;23;20089;-83
2023/06/07 11:55:23;;;;;;;7.55;4.40;;;;;;;;;;6139272;23;20018;-84
2023/06/07 11:57:51;;;;;;;10.23;4.40;;;;;;;;;;6126065;23;20021;-84
2023/06/07 12:00:21;;;;;;;12.23;4.75;;;;;;;;;;6125184;23;20368;-83
2023/06/07 12:02:47;;;;;;;6.65;4.63;;;;;;;;;;6150986;23;20002;-83
2023/06/07 12:05:13;;;;;;;8.35;4.70;;;;;;;;;;6077190;23;20016;-84
2023/06/07 12:07:40;;;;;;;8.40;4.63;;;;;;;;;;6100276;23;20442;-84
2023/06/07 12:10:07;;;;;;;11.82;4.70;;;;;;;;;;6125476;23;20033;-82
2023/06/07 12:12:33;;;;;;;6.95;4.55;;;;;;;;;;6103046;23;20008;-83
2023/06/07 12:15:00;;;;;;;8.80;4.50;;;;;;;;;;6154618;23;20033;-83
2023/06/07 12:17:29;;;;;;;11.10;4.47;;;;;;;;;;6104228;23;20413;-84
2023/06/07 12:20:11;;;;;;;14.18;4.80;;;;;;;;;;6102958;23;20375;-85
2023/06/07 12:22:37;;;;;;;10.20;4.90;;;;;;;;;;6105221;23;20010;-85
2023/06/07 12:25:07;;;;;;;8.02;4.45;;;;;;;;;;6153783;23;20008;-84
2023/06/07 12:27:33;;;;;;;8.93;4.05;;;;;;;;;;6102393;23;20096;-84
2023/06/07 12:29:58;;;;;;;7.63;4.45;;;;;;;;;;6127458;23;20013;-84
2023/06/07 12:32:26;;;;;;;6.63;4.28;;;;;;;;;;6103222;23;20048;-85
2023/06/07 12:34:51;;;;;;;7.63;4.72;;;;;;;;;;6103713;23;20013;-83
2023/06/07 12:37:17;;;;;;;6.25;3.72;;;;;;;;;;6128193;23;20006;-84
2023/06/07 12:39:43;;;;;;;8.13;4.80;;;;;;;;;;6128703;23;20041;-84
2023/06/07 12:42:08;;;;;;;9.65;4.97;;;;;;;;;;6153256;23;20013;-85
2023/06/07 12:44:34;;;;;;;7.10;4.70;;;;;;;;;;6125465;23;20008;-85
2023/06/07 12:47:00;;;;;;;10.25;4.50;;;;;;;;;;6148893;23;20028;-84
2023/06/07 12:49:26;;;;;;;9.23;4.50;;;;;;;;;;6149358;23;20442;-85
2023/06/07 12:51:52;;;;;;;11.75;4.90;;;;;;;;;;6100169;23;19994;-85
2023/06/07 12:54:17;;;;;;;19.58;9.68;;;;;;;;;;6105002;23;20313;-85
2023/06/07 12:56:43;;;;;;;7.78;4.43;;;;;;;;;;6130425;23;20008;-84
2023/06/07 12:59:08;;;;;;;5.82;3.85;;;;;;;;;;6131495;23;20005;-84
2023/06/07 13:01:34;;;;;;;8.63;4.47;;;;;;;;;;6157056;23;20016;-84
2023/06/07 13:04:05;;;;;;;9.55;4.78;;;;;;;;;;6109228;23;20024;-85
2023/06/07 13:06:31;;;;;;;9.90;4.50;;;;;;;;;;6158431;23;20001;-84
2023/06/07 13:09:01;;;;;;;11.68;4.80;;;;;;;;;;6183759;23;20005;-83
2023/06/07 13:11:27;;;;;;;8.05;4.80;;;;;;;;;;6158332;23;20051;-84
2023/06/07 13:13:53;;;;;;;10.05;4.65;;;;;;;;;;6158355;23;20059;-85
2023/06/07 13:16:18;;;;;;;9.82;3.90;;;;;;;;;;6184378;23;20075;-85
2023/06/07 13:18:45;;;;;;;7.00;4.78;;;;;;;;;;6109000;23;20087;-85
2023/06/07 13:21:11;;;;;;;11.57;4.95;;;;;;;;;;6106123;23;20001;-84
2023/06/07 13:23:36;;;;;;;7.88;4.50;;;;;;;;;;6132934;23;20393;-85
2023/06/07 13:26:01;;;;;;;8.13;4.35;;;;;;;;;;6133052;23;19997;-85
2023/06/07 13:28:27;;;;;;;9.18;5.00;;;;;;;;;;6132632;23;20330;-84
2023/06/07 13:30:53;;;;;;;11.27;4.70;;;;;;;;;;6133013;23;20387;-85
2023/06/07 13:33:18;;;;;;;10.27;4.53;;;;;;;;;;6132737;23;20016;-84
2023/06/07 13:35:44;;;;;;;8.40;4.82;;;;;;;;;;6132592;23;19997;-86
2023/06/07 13:38:10;;;;;;;12.93;4.88;;;;;;;;;;6157297;23;20001;-82
2023/06/07 13:40:35;;;;;;;6.60;4.15;;;;;;;;;;6157409;23;20009;-83
2023/06/07 13:43:01;;;;;;;8.75;4.60;;;;;;;;;;6182969;23;20076;-84
2023/06/07 13:45:26;;;;;;;6.82;4.43;;;;;;;;;;6156592;23;20001;-85
2023/06/07 13:47:52;;;;;;;11.60;4.50;;;;;;;;;;6183300;23;20005;-84
2023/06/07 13:50:18;;;;;;;8.63;4.32;;;;;;;;;;6109077;23;20007;-84
2023/06/07 13:52:43;;;;;;;11.30;4.70;;;;;;;;;;6183673;23;20009;-83
2023/06/07 13:55:09;;;;;;;5.95;4.05;;;;;;;;;;6157840;23;20009;-85
2023/06/07 13:57:36;;;;;;;7.88;4.40;;;;;;;;;;6184062;23;20321;-84
2023/06/07 14:00:03;;;;;;;6.88;4.90;;;;;;;;;;6109483;23;20012;-86
2023/06/07 14:02:28;;;;;;;8.07;4.47;;;;;;;;;;6109955;23;20012;-87
2023/06/07 14:04:56;;;;;;;8.13;4.40;;;;;;;;;;6134521;23;20005;-90
2023/06/07 14:07:22;;;;;;;6.97;3.90;;;;;;;;;;6157732;23;20020;-84
2023/06/07 14:09:47;;;;;;;9.43;4.38;;;;;;;;;;6134781;23;20359;-83
2023/06/07 14:12:13;;;;;;;11.55;4.63;;;;;;;;;;6186326;23;20009;-86
2023/06/07 14:14:39;;;;;;;10.35;4.53;;;;;;;;;;6136555;23;20001;-86
2023/06/07 14:17:04;;;;;;;8.27;3.90;;;;;;;;;;6114408;23;20009;-84
2023/06/07 14:19:30;;;;;;;8.20;4.13;;;;;;;;;;6144584;23;20083;-87
2023/06/07 14:21:56;;;;;;;5.40;3.92;;;;;;;;;;6141582;23;20083;-86
2023/06/07 14:24:22;;;;;;;8.45;4.07;;;;;;;;;;6151232;23;20016;-87
2023/06/07 14:26:47;;;;;;;6.90;4.18;;;;;;;;;;6162912;23;19997;-87
2023/06/07 14:29:15;;;;;;;6.10;3.85;;;;;;;;;;6160410;23;19993;-87
2023/06/07 14:31:40;;;;;;;8.30;4.10;;;;;;;;;;6163958;23;20024;-87
2023/06/07 14:34:06;;;;;;;9.32;4.50;;;;;;;;;;6188372;23;20040;-87
2023/06/07 14:36:31;;;;;;;8.85;4.22;;;;;;;;;;6144368;23;20067;-84
2023/06/07 14:38:56;;;;;;;7.53;4.00;;;;;;;;;;6133791;23;20009;-88